sensor_id;sensor_type;location;lat;lon;timestamp;P1;P2;P0
66195;PMS7003;53000;45.182;5.736;2023-10-08T00:01:14;20.75;18.50;11.75
66195;PMS7003;53000;45.182;5.736;2023-10-08T00:03:44;17.25;16.25;12.50
66195;PMS7003;53000;45.182;5.736;2023-10-08T00:06:20;20.25;16.75;13.00
66195;PMS7003;53000;45.182;5.736;2023-10-08T00:08:46;19.00;17.75;13.50
66195;PMS7003;53000;45.182;5.736;2023-10-08T00:11:12;18.25;16.00;12.50
66195;PMS7003;53000;45.182;5.736;2023-10-08T00:13:40;16.25;16.25;12.25
66195;PMS7003;53000;45.182;5.736;2023-10-08T00:16:07;13.75;12.75;10.00
66195;PMS7003;53000;45.182;5.736;2023-10-08T00:18:34;16.00;13.50;11.25
66195;PMS7003;53000;45.182;5.736;2023-10-08T00:21:00;15.50;13.50;9.75
66195;PMS7003;53000;45.182;5.736;2023-10-08T00:23:38;16.75;16.00;11.75
66195;PMS7003;53000;45.182;5.736;2023-10-08T00:26:07;17.00;15.25;11.25
66195;PMS7003;53000;45.182;5.736;2023-10-08T00:28:33;16.75;16.00;11.50
66195;PMS7003;53000;45.182;5.736;2023-10-08T00:30:58;18.25;16.50;12.00
66195;PMS7003;53000;45.182;5.736;2023-10-08T00:33:31;18.50;16.00;14.25
66195;PMS7003;53000;45.182;5.736;2023-10-08T00:35:57;16.75;16.00;12.50
66195;PMS7003;53000;45.182;5.736;2023-10-08T00:38:22;14.00;12.75;10.25
66195;PMS7003;53000;45.182;5.736;2023-10-08T00:40:50;19.75;17.50;12.00
66195;PMS7003;53000;45.182;5.736;2023-10-08T00:43:30;19.25;16.25;11.50
66195;PMS7003;53000;45.182;5.736;2023-10-08T00:46:03;13.50;13.50;9.50
66195;PMS7003;53000;45.182;5.736;2023-10-08T00:48:45;22.00;17.50;11.50
66195;PMS7003;53000;45.182;5.736;2023-10-08T00:51:11;14.50;13.50;10.50
66195;PMS7003;53000;45.182;5.736;2023-10-08T00:53:46;19.75;17.75;13.50
66195;PMS7003;53000;45.182;5.736;2023-10-08T00:56:14;18.50;15.00;12.00
66195;PMS7003;53000;45.182;5.736;2023-10-08T00:58:44;18.00;14.75;12.50
66195;PMS7003;53000;45.182;5.736;2023-10-08T01:01:17;17.50;16.50;12.00
66195;PMS7003;53000;45.182;5.736;2023-10-08T01:03:45;17.50;17.50;13.25
66195;PMS7003;53000;45.182;5.736;2023-10-08T01:06:11;19.75;16.75;13.25
66195;PMS7003;53000;45.182;5.736;2023-10-08T01:08:37;15.50;13.50;11.25
66195;PMS7003;53000;45.182;5.736;2023-10-08T01:11:20;17.25;16.25;11.75
66195;PMS7003;53000;45.182;5.736;2023-10-08T01:13:51;18.25;17.25;13.75
66195;PMS7003;53000;45.182;5.736;2023-10-08T01:16:19;16.25;15.50;12.00
66195;PMS7003;53000;45.182;5.736;2023-10-08T01:18:45;14.00;13.75;12.00
66195;PMS7003;53000;45.182;5.736;2023-10-08T01:21:15;14.75;13.25;9.00
66195;PMS7003;53000;45.182;5.736;2023-10-08T01:23:47;14.00;14.00;11.00
66195;PMS7003;53000;45.182;5.736;2023-10-08T01:26:13;12.50;12.00;10.75
66195;PMS7003;53000;45.182;5.736;2023-10-08T01:28:40;17.25;15.00;11.50
66195;PMS7003;53000;45.182;5.736;2023-10-08T01:31:07;16.50;14.00;11.00
66195;PMS7003;53000;45.182;5.736;2023-10-08T01:33:37;16.25;14.00;10.50
66195;PMS7003;53000;45.182;5.736;2023-10-08T01:36:04;17.75;14.75;12.25
66195;PMS7003;53000;45.182;5.736;2023-10-08T01:38:30;17.00;16.75;13.00
66195;PMS7003;53000;45.182;5.736;2023-10-08T01:40:58;12.50;12.50;11.00
66195;PMS7003;53000;45.182;5.736;2023-10-08T01:43:28;17.75;16.75;12.00
66195;PMS7003;53000;45.182;5.736;2023-10-08T01:45:54;17.00;16.50;13.50
66195;PMS7003;53000;45.182;5.736;2023-10-08T01:48:20;18.25;17.50;12.50
66195;PMS7003;53000;45.182;5.736;2023-10-08T01:50:55;13.75;13.75;11.00
66195;PMS7003;53000;45.182;5.736;2023-10-08T01:53:26;16.00;15.00;11.75
66195;PMS7003;53000;45.182;5.736;2023-10-08T01:55:52;16.00;15.50;11.75
66195;PMS7003;53000;45.182;5.736;2023-10-08T01:58:19;18.00;15.50;13.00
66195;PMS7003;53000;45.182;5.736;2023-10-08T02:00:45;19.00;18.00;11.50
66195;PMS7003;53000;45.182;5.736;2023-10-08T02:03:12;15.50;15.25;11.25
66195;PMS7003;53000;45.182;5.736;2023-10-08T02:05:41;16.50;13.75;11.00
66195;PMS7003;53000;45.182;5.736;2023-10-08T02:08:11;15.75;14.50;11.00
66195;PMS7003;53000;45.182;5.736;2023-10-08T02:10:41;16.25;15.00;11.50
66195;PMS7003;53000;45.182;5.736;2023-10-08T02:13:08;17.75;17.75;13.00
66195;PMS7003;53000;45.182;5.736;2023-10-08T02:15:40;16.00;15.75;11.00
66195;PMS7003;53000;45.182;5.736;2023-10-08T02:18:08;15.25;14.75;11.75
66195;PMS7003;53000;45.182;5.736;2023-10-08T02:20:33;15.75;15.00;12.00
66195;PMS7003;53000;45.182;5.736;2023-10-08T02:22:59;21.00;19.00;13.00
66195;PMS7003;53000;45.182;5.736;2023-10-08T02:25:25;17.50;16.75;13.00
66195;PMS7003;53000;45.182;5.736;2023-10-08T02:27:50;16.00;15.25;13.00
66195;PMS7003;53000;45.182;5.736;2023-10-08T02:30:16;17.25;16.75;12.00
66195;PMS7003;53000;45.182;5.736;2023-10-08T02:32:42;16.25;14.00;11.00
66195;PMS7003;53000;45.182;5.736;2023-10-08T02:35:09;19.50;18.00;13.25
66195;PMS7003;53000;45.182;5.736;2023-10-08T02:37:36;14.50;14.50;11.25
66195;PMS7003;53000;45.182;5.736;2023-10-08T02:40:05;14.75;14.00;11.25
66195;PMS7003;53000;45.182;5.736;2023-10-08T02:42:52;19.25;14.50;12.00
66195;PMS7003;53000;45.182;5.736;2023-10-08T02:45:26;18.50;16.50;11.75
66195;PMS7003;53000;45.182;5.736;2023-10-08T02:47:52;19.50;19.25;14.00
66195;PMS7003;53000;45.182;5.736;2023-10-08T02:50:21;16.25;15.25;12.75
66195;PMS7003;53000;45.182;5.736;2023-10-08T02:52:48;18.50;15.75;12.25
66195;PMS7003;53000;45.182;5.736;2023-10-08T02:55:17;16.25;13.00;10.50
66195;PMS7003;53000;45.182;5.736;2023-10-08T02:57:59;18.00;16.00;12.00
66195;PMS7003;53000;45.182;5.736;2023-10-08T03:00:27;14.50;13.75;10.75
66195;PMS7003;53000;45.182;5.736;2023-10-08T03:02:55;15.75;12.00;10.00
66195;PMS7003;53000;45.182;5.736;2023-10-08T03:05:21;14.00;14.00;11.50
66195;PMS7003;53000;45.182;5.736;2023-10-08T03:07:47;15.50;14.25;11.50
66195;PMS7003;53000;45.182;5.736;2023-10-08T03:10:16;14.00;13.25;11.00
66195;PMS7003;53000;45.182;5.736;2023-10-08T03:12:43;16.25;15.00;11.00
66195;PMS7003;53000;45.182;5.736;2023-10-08T03:15:12;16.50;13.25;10.50
66195;PMS7003;53000;45.182;5.736;2023-10-08T03:17:42;16.00;16.00;12.75
66195;PMS7003;53000;45.182;5.736;2023-10-08T03:20:19;15.00;14.00;10.25
66195;PMS7003;53000;45.182;5.736;2023-10-08T03:23:07;15.00;14.00;11.00
66195;PMS7003;53000;45.182;5.736;2023-10-08T03:25:38;13.00;12.25;10.75
66195;PMS7003;53000;45.182;5.736;2023-10-08T03:28:09;14.75;13.50;10.75
66195;PMS7003;53000;45.182;5.736;2023-10-08T03:30:39;15.75;14.25;10.00
66195;PMS7003;53000;45.182;5.736;2023-10-08T03:33:16;13.00;12.00;10.00
66195;PMS7003;53000;45.182;5.736;2023-10-08T03:35:48;12.75;12.25;9.00
66195;PMS7003;53000;45.182;5.736;2023-10-08T03:38:17;16.50;16.50;12.75
66195;PMS7003;53000;45.182;5.736;2023-10-08T03:40:53;18.25;17.25;11.75
66195;PMS7003;53000;45.182;5.736;2023-10-08T03:43:32;18.50;18.50;13.00
66195;PMS7003;53000;45.182;5.736;2023-10-08T03:46:09;29.25;26.00;19.00
66195;PMS7003;53000;45.182;5.736;2023-10-08T03:48:40;23.00;18.50;14.50
66195;PMS7003;53000;45.182;5.736;2023-10-08T03:51:09;29.75;25.50;17.25
66195;PMS7003;53000;45.182;5.736;2023-10-08T03:53:37;26.25;22.50;16.75
66195;PMS7003;53000;45.182;5.736;2023-10-08T03:56:24;24.00;22.75;17.00
66195;PMS7003;53000;45.182;5.736;2023-10-08T03:58:50;22.00;19.00;14.75
66195;PMS7003;53000;45.182;5.736;2023-10-08T04:01:18;17.75;16.00;14.25
66195;PMS7003;53000;45.182;5.736;2023-10-08T04:03:45;19.25;17.25;13.00
66195;PMS7003;53000;45.182;5.736;2023-10-08T04:06:16;20.25;19.00;14.75
66195;PMS7003;53000;45.182;5.736;2023-10-08T04:08:41;18.50;17.00;13.50
66195;PMS7003;53000;45.182;5.736;2023-10-08T04:11:20;16.50;14.50;11.25
66195;PMS7003;53000;45.182;5.736;2023-10-08T04:13:57;17.00;14.00;11.25
66195;PMS7003;53000;45.182;5.736;2023-10-08T04:16:27;17.75;17.75;14.00
66195;PMS7003;53000;45.182;5.736;2023-10-08T04:18:53;19.50;17.00;12.00
66195;PMS7003;53000;45.182;5.736;2023-10-08T04:21:21;18.50;16.75;12.00
66195;PMS7003;53000;45.182;5.736;2023-10-08T04:23:47;16.50;15.25;13.25
66195;PMS7003;53000;45.182;5.736;2023-10-08T04:26:16;14.25;12.25;9.50
66195;PMS7003;53000;45.182;5.736;2023-10-08T04:28:42;17.00;15.25;10.75
66195;PMS7003;53000;45.182;5.736;2023-10-08T04:31:08;18.00;15.75;11.25
66195;PMS7003;53000;45.182;5.736;2023-10-08T04:33:43;16.25;14.25;10.00
66195;PMS7003;53000;45.182;5.736;2023-10-08T04:36:09;18.75;16.00;12.00
66195;PMS7003;53000;45.182;5.736;2023-10-08T04:38:43;14.00;13.25;11.00
66195;PMS7003;53000;45.182;5.736;2023-10-08T04:41:10;18.50;15.50;12.00
66195;PMS7003;53000;45.182;5.736;2023-10-08T04:43:36;17.00;16.50;12.00
66195;PMS7003;53000;45.182;5.736;2023-10-08T04:46:08;17.50;14.50;11.00
66195;PMS7003;53000;45.182;5.736;2023-10-08T04:49:04;17.25;15.25;11.00
66195;PMS7003;53000;45.182;5.736;2023-10-08T04:51:32;19.00;16.25;12.75
66195;PMS7003;53000;45.182;5.736;2023-10-08T04:54:09;18.00;15.75;12.00
66195;PMS7003;53000;45.182;5.736;2023-10-08T04:56:41;16.75;16.75;12.50
66195;PMS7003;53000;45.182;5.736;2023-10-08T04:59:06;13.25;13.25;12.00
66195;PMS7003;53000;45.182;5.736;2023-10-08T05:01:34;18.50;14.50;10.00
66195;PMS7003;53000;45.182;5.736;2023-10-08T05:04:18;15.75;14.00;11.00
66195;PMS7003;53000;45.182;5.736;2023-10-08T05:06:52;18.50;15.75;12.50
66195;PMS7003;53000;45.182;5.736;2023-10-08T05:09:42;17.00;14.25;12.00
66195;PMS7003;53000;45.182;5.736;2023-10-08T05:12:26;15.25;13.75;11.00
66195;PMS7003;53000;45.182;5.736;2023-10-08T05:15:00;15.25;15.25;11.00
66195;PMS7003;53000;45.182;5.736;2023-10-08T05:17:38;17.75;17.25;12.25
66195;PMS7003;53000;45.182;5.736;2023-10-08T05:20:19;17.75;16.25;12.00
66195;PMS7003;53000;45.182;5.736;2023-10-08T05:23:09;15.25;14.00;10.75
66195;PMS7003;53000;45.182;5.736;2023-10-08T05:25:54;18.25;17.00;11.75
66195;PMS7003;53000;45.182;5.736;2023-10-08T05:28:30;17.00;16.50;12.50
66195;PMS7003;53000;45.182;5.736;2023-10-08T05:30:56;16.25;14.75;11.25
66195;PMS7003;53000;45.182;5.736;2023-10-08T05:33:46;15.00;14.25;12.00
66195;PMS7003;53000;45.182;5.736;2023-10-08T05:36:35;16.75;15.00;11.25
66195;PMS7003;53000;45.182;5.736;2023-10-08T05:39:19;15.75;15.00;11.50
66195;PMS7003;53000;45.182;5.736;2023-10-08T05:41:50;15.25;13.00;9.50
66195;PMS7003;53000;45.182;5.736;2023-10-08T05:44:17;20.00;14.00;11.50
66195;PMS7003;53000;45.182;5.736;2023-10-08T05:46:43;19.00;14.75;11.25
66195;PMS7003;53000;45.182;5.736;2023-10-08T05:49:14;15.50;13.75;10.00
66195;PMS7003;53000;45.182;5.736;2023-10-08T05:51:40;17.00;15.00;10.75
66195;PMS7003;53000;45.182;5.736;2023-10-08T05:54:29;18.25;14.00;11.00
66195;PMS7003;53000;45.182;5.736;2023-10-08T05:57:00;15.00;14.00;10.00
66195;PMS7003;53000;45.182;5.736;2023-10-08T05:59:39;17.50;14.50;9.50
66195;PMS7003;53000;45.182;5.736;2023-10-08T06:02:20;15.00;13.75;11.00
66195;PMS7003;53000;45.182;5.736;2023-10-08T06:05:06;13.50;11.00;10.00
66195;PMS7003;53000;45.182;5.736;2023-10-08T06:10:32;14.25;9.25;8.00
66195;PMS7003;53000;45.182;5.736;2023-10-08T06:12:59;15.75;14.25;9.75
66195;PMS7003;53000;45.182;5.736;2023-10-08T06:15:49;20.00;15.00;11.00
66195;PMS7003;53000;45.182;5.736;2023-10-08T06:18:16;13.75;11.75;9.00
66195;PMS7003;53000;45.182;5.736;2023-10-08T06:20:43;17.00;13.00;10.00
66195;PMS7003;53000;45.182;5.736;2023-10-08T06:23:13;14.75;12.75;10.50
66195;PMS7003;53000;45.182;5.736;2023-10-08T06:25:46;16.25;15.50;11.50
66195;PMS7003;53000;45.182;5.736;2023-10-08T06:28:19;14.25;12.25;10.25
66195;PMS7003;53000;45.182;5.736;2023-10-08T06:30:47;14.50;14.00;12.25
66195;PMS7003;53000;45.182;5.736;2023-10-08T06:33:14;14.50;12.00;10.00
66195;PMS7003;53000;45.182;5.736;2023-10-08T06:35:41;15.25;13.50;10.75
66195;PMS7003;53000;45.182;5.736;2023-10-08T06:38:10;13.75;13.00;9.75
66195;PMS7003;53000;45.182;5.736;2023-10-08T06:40:36;15.00;14.75;10.00
66195;PMS7003;53000;45.182;5.736;2023-10-08T06:43:02;19.50;15.50;11.75
66195;PMS7003;53000;45.182;5.736;2023-10-08T06:45:40;15.25;13.50;11.00
66195;PMS7003;53000;45.182;5.736;2023-10-08T06:48:07;14.75;14.50;11.75
66195;PMS7003;53000;45.182;5.736;2023-10-08T06:50:34;15.50;13.75;11.00
66195;PMS7003;53000;45.182;5.736;2023-10-08T06:53:00;19.75;16.00;11.50
66195;PMS7003;53000;45.182;5.736;2023-10-08T06:55:31;18.75;15.75;10.75
66195;PMS7003;53000;45.182;5.736;2023-10-08T06:57:59;17.00;14.75;11.00
66195;PMS7003;53000;45.182;5.736;2023-10-08T07:00:25;15.75;14.75;11.50
66195;PMS7003;53000;45.182;5.736;2023-10-08T07:03:11;17.00;15.00;12.00
66195;PMS7003;53000;45.182;5.736;2023-10-08T07:05:41;18.25;15.50;12.00
66195;PMS7003;53000;45.182;5.736;2023-10-08T07:08:09;15.50;14.50;10.00
66195;PMS7003;53000;45.182;5.736;2023-10-08T07:10:38;11.00;10.25;7.00
66195;PMS7003;53000;45.182;5.736;2023-10-08T07:13:06;15.25;15.25;12.25
66195;PMS7003;53000;45.182;5.736;2023-10-08T07:15:33;16.25;13.75;10.50
66195;PMS7003;53000;45.182;5.736;2023-10-08T07:18:03;16.50;16.25;11.75
66195;PMS7003;53000;45.182;5.736;2023-10-08T07:20:35;16.50;16.00;12.75
66195;PMS7003;53000;45.182;5.736;2023-10-08T07:23:06;14.00;14.00;11.50
66195;PMS7003;53000;45.182;5.736;2023-10-08T07:25:37;17.25;15.25;12.00
66195;PMS7003;53000;45.182;5.736;2023-10-08T07:28:04;14.00;13.25;10.00
66195;PMS7003;53000;45.182;5.736;2023-10-08T07:30:30;15.50;13.25;10.00
66195;PMS7003;53000;45.182;5.736;2023-10-08T07:32:57;17.25;15.00;11.00
66195;PMS7003;53000;45.182;5.736;2023-10-08T07:35:23;19.50;16.25;12.00
66195;PMS7003;53000;45.182;5.736;2023-10-08T07:37:50;15.00;14.50;10.75
66195;PMS7003;53000;45.182;5.736;2023-10-08T07:40:18;16.75;14.50;10.75
66195;PMS7003;53000;45.182;5.736;2023-10-08T07:42:45;16.50;15.75;12.00
66195;PMS7003;53000;45.182;5.736;2023-10-08T07:45:16;18.00;17.25;13.75
66195;PMS7003;53000;45.182;5.736;2023-10-08T07:47:42;23.25;19.75;14.25
66195;PMS7003;53000;45.182;5.736;2023-10-08T07:50:08;17.50;14.50;11.00
66195;PMS7003;53000;45.182;5.736;2023-10-08T07:52:37;15.00;13.00;10.00
66195;PMS7003;53000;45.182;5.736;2023-10-08T07:55:03;14.50;14.00;10.25
66195;PMS7003;53000;45.182;5.736;2023-10-08T07:57:29;18.00;14.50;11.00
66195;PMS7003;53000;45.182;5.736;2023-10-08T07:59:56;11.50;11.50;8.50
66195;PMS7003;53000;45.182;5.736;2023-10-08T08:02:41;13.50;12.25;11.50
66195;PMS7003;53000;45.182;5.736;2023-10-08T08:05:07;18.00;15.50;12.00
66195;PMS7003;53000;45.182;5.736;2023-10-08T08:07:32;17.00;14.00;10.75
66195;PMS7003;53000;45.182;5.736;2023-10-08T08:09:58;19.00;14.25;9.00
66195;PMS7003;53000;45.182;5.736;2023-10-08T08:12:24;13.50;13.25;10.00
66195;PMS7003;53000;45.182;5.736;2023-10-08T08:14:53;13.50;11.75;8.25
66195;PMS7003;53000;45.182;5.736;2023-10-08T08:17:19;14.50;11.75;10.00
66195;PMS7003;53000;45.182;5.736;2023-10-08T08:19:45;14.50;13.75;10.00
66195;PMS7003;53000;45.182;5.736;2023-10-08T08:22:13;12.50;12.25;10.25
66195;PMS7003;53000;45.182;5.736;2023-10-08T08:24:56;13.75;12.25;10.25
66195;PMS7003;53000;45.182;5.736;2023-10-08T08:27:30;15.25;13.75;10.75
66195;PMS7003;53000;45.182;5.736;2023-10-08T08:29:58;11.50;10.75;8.50
66195;PMS7003;53000;45.182;5.736;2023-10-08T08:32:40;15.25;13.75;10.25
66195;PMS7003;53000;45.182;5.736;2023-10-08T08:35:10;14.75;13.75;10.50
66195;PMS7003;53000;45.182;5.736;2023-10-08T08:37:37;13.50;10.75;8.25
66195;PMS7003;53000;45.182;5.736;2023-10-08T08:40:06;14.50;12.00;10.00
66195;PMS7003;53000;45.182;5.736;2023-10-08T08:42:42;14.25;13.00;9.75
66195;PMS7003;53000;45.182;5.736;2023-10-08T08:45:09;15.00;11.75;7.75
66195;PMS7003;53000;45.182;5.736;2023-10-08T08:47:38;13.00;11.25;8.50
66195;PMS7003;53000;45.182;5.736;2023-10-08T08:50:08;13.00;9.25;7.50
66195;PMS7003;53000;45.182;5.736;2023-10-08T08:52:37;15.00;12.25;10.00
66195;PMS7003;53000;45.182;5.736;2023-10-08T08:55:06;12.50;10.50;7.00
66195;PMS7003;53000;45.182;5.736;2023-10-08T08:57:39;9.75;9.75;8.00
66195;PMS7003;53000;45.182;5.736;2023-10-08T09:00:07;13.75;12.00;9.00
66195;PMS7003;53000;45.182;5.736;2023-10-08T09:02:35;12.50;10.25;7.50
66195;PMS7003;53000;45.182;5.736;2023-10-08T09:05:02;12.50;10.50;9.00
66195;PMS7003;53000;45.182;5.736;2023-10-08T09:07:51;10.50;10.00;8.00
66195;PMS7003;53000;45.182;5.736;2023-10-08T09:10:23;12.00;11.25;10.00
66195;PMS7003;53000;45.182;5.736;2023-10-08T09:12:53;10.75;8.50;7.25
66195;PMS7003;53000;45.182;5.736;2023-10-08T09:15:19;12.50;11.00;8.25
66195;PMS7003;53000;45.182;5.736;2023-10-08T09:17:46;10.25;9.00;7.25
66195;PMS7003;53000;45.182;5.736;2023-10-08T09:20:11;14.75;12.00;8.50
66195;PMS7003;53000;45.182;5.736;2023-10-08T09:22:37;9.00;9.00;7.75
66195;PMS7003;53000;45.182;5.736;2023-10-08T09:25:02;8.50;7.75;6.00
66195;PMS7003;53000;45.182;5.736;2023-10-08T09:27:32;9.00;8.00;6.00
66195;PMS7003;53000;45.182;5.736;2023-10-08T09:29:57;13.25;11.50;8.00
66195;PMS7003;53000;45.182;5.736;2023-10-08T09:32:24;11.00;9.25;6.75
66195;PMS7003;53000;45.182;5.736;2023-10-08T09:34:50;11.75;10.25;8.75
66195;PMS7003;53000;45.182;5.736;2023-10-08T09:37:17;9.75;8.75;6.50
66195;PMS7003;53000;45.182;5.736;2023-10-08T09:39:42;9.00;8.00;6.25
66195;PMS7003;53000;45.182;5.736;2023-10-08T09:42:10;9.50;9.00;7.00
66195;PMS7003;53000;45.182;5.736;2023-10-08T09:44:37;9.00;9.00;7.00
66195;PMS7003;53000;45.182;5.736;2023-10-08T09:47:05;9.00;7.00;6.00
66195;PMS7003;53000;45.182;5.736;2023-10-08T09:49:32;10.25;9.00;7.25
66195;PMS7003;53000;45.182;5.736;2023-10-08T09:52:02;7.00;6.50;5.00
66195;PMS7003;53000;45.182;5.736;2023-10-08T09:54:31;10.50;9.75;7.25
66195;PMS7003;53000;45.182;5.736;2023-10-08T09:57:07;9.75;9.50;5.75
66195;PMS7003;53000;45.182;5.736;2023-10-08T09:59:35;7.50;7.50;5.25
66195;PMS7003;53000;45.182;5.736;2023-10-08T10:02:03;12.25;10.00;7.00
66195;PMS7003;53000;45.182;5.736;2023-10-08T10:04:30;9.00;7.00;6.00
66195;PMS7003;53000;45.182;5.736;2023-10-08T10:06:57;9.75;8.50;6.25
66195;PMS7003;53000;45.182;5.736;2023-10-08T10:09:26;7.00;7.00;5.25
66195;PMS7003;53000;45.182;5.736;2023-10-08T10:11:51;10.00;8.75;8.00
66195;PMS7003;53000;45.182;5.736;2023-10-08T10:14:22;9.00;6.25;5.25
66195;PMS7003;53000;45.182;5.736;2023-10-08T10:19:40;8.25;7.25;6.25
66195;PMS7003;53000;45.182;5.736;2023-10-08T10:22:10;10.25;9.00;7.00
66195;PMS7003;53000;45.182;5.736;2023-10-08T10:24:40;9.50;8.75;7.25
66195;PMS7003;53000;45.182;5.736;2023-10-08T10:27:13;8.75;7.50;6.50
66195;PMS7003;53000;45.182;5.736;2023-10-08T10:29:40;9.25;7.50;5.75
66195;PMS7003;53000;45.182;5.736;2023-10-08T10:32:11;7.50;6.50;5.00
66195;PMS7003;53000;45.182;5.736;2023-10-08T10:34:39;7.00;7.00;5.50
66195;PMS7003;53000;45.182;5.736;2023-10-08T10:37:05;7.50;6.75;5.75
66195;PMS7003;53000;45.182;5.736;2023-10-08T10:39:34;7.00;7.00;5.75
66195;PMS7003;53000;45.182;5.736;2023-10-08T10:42:05;10.50;6.75;5.75
66195;PMS7003;53000;45.182;5.736;2023-10-08T10:44:32;9.00;8.25;6.50
66195;PMS7003;53000;45.182;5.736;2023-10-08T10:47:01;8.00;8.00;6.25
66195;PMS7003;53000;45.182;5.736;2023-10-08T10:49:52;7.75;5.75;4.75
66195;PMS7003;53000;45.182;5.736;2023-10-08T10:52:27;7.75;6.25;5.25
66195;PMS7003;53000;45.182;5.736;2023-10-08T10:55:01;8.75;7.50;5.50
66195;PMS7003;53000;45.182;5.736;2023-10-08T10:57:48;5.25;5.25;4.75
66195;PMS7003;53000;45.182;5.736;2023-10-08T11:00:19;8.00;7.00;5.00
66195;PMS7003;53000;45.182;5.736;2023-10-08T11:02:58;7.75;7.75;6.00
66195;PMS7003;53000;45.182;5.736;2023-10-08T11:05:57;7.00;6.75;5.75
66195;PMS7003;53000;45.182;5.736;2023-10-08T11:08:25;6.75;5.25;4.00
66195;PMS7003;53000;45.182;5.736;2023-10-08T11:10:51;5.50;5.50;4.25
66195;PMS7003;53000;45.182;5.736;2023-10-08T11:13:21;7.00;7.00;5.00
66195;PMS7003;53000;45.182;5.736;2023-10-08T11:15:53;6.75;6.75;5.50
66195;PMS7003;53000;45.182;5.736;2023-10-08T11:18:20;7.25;6.00;4.25
66195;PMS7003;53000;45.182;5.736;2023-10-08T11:20:48;7.75;7.75;6.25
66195;PMS7003;53000;45.182;5.736;2023-10-08T11:23:31;5.25;5.25;4.00
66195;PMS7003;53000;45.182;5.736;2023-10-08T11:25:59;9.00;9.00;5.25
66195;PMS7003;53000;45.182;5.736;2023-10-08T11:28:37;7.00;6.25;5.00
66195;PMS7003;53000;45.182;5.736;2023-10-08T11:31:07;7.75;5.50;4.00
66195;PMS7003;53000;45.182;5.736;2023-10-08T11:33:44;7.00;6.25;5.50
66195;PMS7003;53000;45.182;5.736;2023-10-08T11:36:19;7.50;7.00;6.00
66195;PMS7003;53000;45.182;5.736;2023-10-08T11:38:49;7.00;7.00;5.75
66195;PMS7003;53000;45.182;5.736;2023-10-08T11:41:19;8.00;7.00;6.00
66195;PMS7003;53000;45.182;5.736;2023-10-08T11:43:48;7.50;6.50;4.75
66195;PMS7003;53000;45.182;5.736;2023-10-08T11:46:25;8.75;8.25;6.50
66195;PMS7003;53000;45.182;5.736;2023-10-08T11:48:53;7.00;4.00;3.50
66195;PMS7003;53000;45.182;5.736;2023-10-08T11:51:23;7.75;6.00;5.00
66195;PMS7003;53000;45.182;5.736;2023-10-08T11:53:50;7.00;7.00;5.25
66195;PMS7003;53000;45.182;5.736;2023-10-08T11:56:16;6.75;6.75;5.75
66195;PMS7003;53000;45.182;5.736;2023-10-08T11:58:46;8.00;6.00;5.00
66195;PMS7003;53000;45.182;5.736;2023-10-08T12:01:12;7.25;6.25;6.00
66195;PMS7003;53000;45.182;5.736;2023-10-08T12:03:40;6.00;6.00;4.75
66195;PMS7003;53000;45.182;5.736;2023-10-08T12:06:08;8.00;8.00;5.75
66195;PMS7003;53000;45.182;5.736;2023-10-08T12:08:34;9.00;6.25;5.00
66195;PMS7003;53000;45.182;5.736;2023-10-08T12:11:04;11.50;9.75;6.75
66195;PMS7003;53000;45.182;5.736;2023-10-08T12:13:36;8.00;7.25;5.75
66195;PMS7003;53000;45.182;5.736;2023-10-08T12:16:02;7.50;6.00;5.00
66195;PMS7003;53000;45.182;5.736;2023-10-08T12:18:33;6.25;5.75;3.00
66195;PMS7003;53000;45.182;5.736;2023-10-08T12:21:08;10.50;9.25;7.00
66195;PMS7003;53000;45.182;5.736;2023-10-08T12:23:38;5.75;5.75;4.75
66195;PMS7003;53000;45.182;5.736;2023-10-08T12:26:04;10.25;8.00;6.00
66195;PMS7003;53000;45.182;5.736;2023-10-08T12:28:32;7.00;7.00;5.25
66195;PMS7003;53000;45.182;5.736;2023-10-08T12:30:59;8.50;8.50;6.00
66195;PMS7003;53000;45.182;5.736;2023-10-08T12:33:26;6.00;6.00;4.25
66195;PMS7003;53000;45.182;5.736;2023-10-08T12:35:51;9.50;9.25;6.75
66195;PMS7003;53000;45.182;5.736;2023-10-08T12:38:30;8.75;7.25;6.00
66195;PMS7003;53000;45.182;5.736;2023-10-08T12:40:56;7.75;7.25;5.00
66195;PMS7003;53000;45.182;5.736;2023-10-08T12:43:24;11.50;7.50;7.00
66195;PMS7003;53000;45.182;5.736;2023-10-08T12:45:53;8.25;7.50;5.00
66195;PMS7003;53000;45.182;5.736;2023-10-08T12:48:24;9.00;8.00;6.00
66195;PMS7003;53000;45.182;5.736;2023-10-08T12:50:54;7.50;6.75;4.75
66195;PMS7003;53000;45.182;5.736;2023-10-08T12:53:27;11.50;7.50;6.25
66195;PMS7003;53000;45.182;5.736;2023-10-08T12:55:59;10.75;10.00;5.00
66195;PMS7003;53000;45.182;5.736;2023-10-08T12:58:30;7.25;7.25;6.00
66195;PMS7003;53000;45.182;5.736;2023-10-08T13:00:59;8.00;7.75;6.00
66195;PMS7003;53000;45.182;5.736;2023-10-08T13:03:28;6.25;6.25;5.25
66195;PMS7003;53000;45.182;5.736;2023-10-08T13:05:56;7.25;7.00;6.00
66195;PMS7003;53000;45.182;5.736;2023-10-08T13:08:36;8.50;7.00;5.25
66195;PMS7003;53000;45.182;5.736;2023-10-08T13:11:02;0.00;0.00;0.00
66195;PMS7003;53000;45.182;5.736;2023-10-08T13:13:28;8.50;7.25;6.00
66195;PMS7003;53000;45.182;5.736;2023-10-08T13:15:54;9.00;9.00;6.00
66195;PMS7003;53000;45.182;5.736;2023-10-08T13:18:24;8.25;7.75;5.75
66195;PMS7003;53000;45.182;5.736;2023-10-08T13:20:52;8.00;8.00;5.75
66195;PMS7003;53000;45.182;5.736;2023-10-08T13:23:18;7.25;7.25;6.00
66195;PMS7003;53000;45.182;5.736;2023-10-08T13:25:46;9.25;7.25;5.25
66195;PMS7003;53000;45.182;5.736;2023-10-08T13:28:18;8.00;7.50;5.75
66195;PMS7003;53000;45.182;5.736;2023-10-08T13:30:45;8.25;8.00;7.00
66195;PMS7003;53000;45.182;5.736;2023-10-08T13:33:11;9.00;8.50;6.25
66195;PMS7003;53000;45.182;5.736;2023-10-08T13:35:36;8.50;7.00;5.75
66195;PMS7003;53000;45.182;5.736;2023-10-08T13:38:02;7.75;6.75;5.50
66195;PMS7003;53000;45.182;5.736;2023-10-08T13:40:34;5.00;4.25;4.00
66195;PMS7003;53000;45.182;5.736;2023-10-08T13:43:04;8.50;8.00;6.00
66195;PMS7003;53000;45.182;5.736;2023-10-08T13:45:30;8.25;7.00;6.00
66195;PMS7003;53000;45.182;5.736;2023-10-08T13:47:57;6.00;5.00;4.00
66195;PMS7003;53000;45.182;5.736;2023-10-08T13:50:24;8.75;8.00;5.75
66195;PMS7003;53000;45.182;5.736;2023-10-08T13:52:50;5.25;4.50;4.00
66195;PMS7003;53000;45.182;5.736;2023-10-08T13:55:15;8.75;6.75;4.50
66195;PMS7003;53000;45.182;5.736;2023-10-08T13:57:44;5.75;5.75;4.75
66195;PMS7003;53000;45.182;5.736;2023-10-08T14:00:11;5.25;5.25;4.25
66195;PMS7003;53000;45.182;5.736;2023-10-08T14:02:43;5.50;5.50;4.25
66195;PMS7003;53000;45.182;5.736;2023-10-08T14:05:16;5.75;5.75;4.75
66195;PMS7003;53000;45.182;5.736;2023-10-08T14:07:42;8.00;7.25;6.00
66195;PMS7003;53000;45.182;5.736;2023-10-08T14:10:09;6.50;6.50;4.00
66195;PMS7003;53000;45.182;5.736;2023-10-08T14:12:43;6.00;5.00;4.25
66195;PMS7003;53000;45.182;5.736;2023-10-08T14:15:09;5.00;4.25;3.75
66195;PMS7003;53000;45.182;5.736;2023-10-08T14:17:39;9.50;7.25;6.00
66195;PMS7003;53000;45.182;5.736;2023-10-08T14:20:07;8.75;5.25;4.00
66195;PMS7003;53000;45.182;5.736;2023-10-08T14:22:38;5.50;5.50;4.00